sensor_id;sensor_type;location;lat;lon;timestamp;P1;durP1;ratioP1;P2;durP2;ratioP2
74660;SDS011;63191;39.566;2.654;2022-09-03T00:02:32;10.00;;;2.90;;
74660;SDS011;63191;39.566;2.654;2022-09-03T00:13:35;11.80;;;2.50;;
74660;SDS011;63191;39.566;2.654;2022-09-03T00:16:08;11.40;;;3.00;;
74660;SDS011;63191;39.566;2.654;2022-09-03T00:18:49;11.00;;;3.40;;
74660;SDS011;63191;39.566;2.654;2022-09-03T00:21:35;9.50;;;2.80;;
74660;SDS011;63191;39.566;2.654;2022-09-03T00:24:03;7.50;;;3.10;;
74660;SDS011;63191;39.566;2.654;2022-09-03T00:26:34;12.50;;;3.10;;
74660;SDS011;63191;39.566;2.654;2022-09-03T00:29:15;8.50;;;2.80;;
74660;SDS011;63191;39.566;2.654;2022-09-03T00:31:50;9.40;;;2.70;;
74660;SDS011;63191;39.566;2.654;2022-09-03T00:34:29;7.00;;;2.60;;
74660;SDS011;63191;39.566;2.654;2022-09-03T00:36:58;7.70;;;2.70;;
74660;SDS011;63191;39.566;2.654;2022-09-03T00:39:26;11.30;;;2.70;;
74660;SDS011;63191;39.566;2.654;2022-09-03T00:45:21;9.30;;;3.00;;
74660;SDS011;63191;39.566;2.654;2022-09-03T00:54:14;8.00;;;2.70;;
74660;SDS011;63191;39.566;2.654;2022-09-03T01:13:12;7.50;;;2.50;;
74660;SDS011;63191;39.566;2.654;2022-09-03T01:16:20;7.60;;;2.60;;
74660;SDS011;63191;39.566;2.654;2022-09-03T01:27:45;11.30;;;2.80;;
74660;SDS011;63191;39.566;2.654;2022-09-03T01:30:14;8.50;;;2.20;;
74660;SDS011;63191;39.566;2.654;2022-09-03T01:32:56;8.30;;;2.40;;
74660;SDS011;63191;39.566;2.654;2022-09-03T01:35:46;7.50;;;2.20;;
74660;SDS011;63191;39.566;2.654;2022-09-03T01:38:52;10.20;;;2.40;;
74660;SDS011;63191;39.566;2.654;2022-09-03T01:41:37;8.50;;;2.50;;
74660;SDS011;63191;39.566;2.654;2022-09-03T01:53:22;9.20;;;2.30;;
74660;SDS011;63191;39.566;2.654;2022-09-03T02:02:20;8.60;;;2.50;;
74660;SDS011;63191;39.566;2.654;2022-09-03T02:05:00;6.80;;;2.40;;
74660;SDS011;63191;39.566;2.654;2022-09-03T02:07:36;8.60;;;2.00;;
74660;SDS011;63191;39.566;2.654;2022-09-03T02:10:06;8.90;;;2.20;;
74660;SDS011;63191;39.566;2.654;2022-09-03T02:12:35;10.20;;;2.40;;
74660;SDS011;63191;39.566;2.654;2022-09-03T02:15:09;11.60;;;2.50;;
74660;SDS011;63191;39.566;2.654;2022-09-03T02:17:39;8.30;;;2.20;;
74660;SDS011;63191;39.566;2.654;2022-09-03T02:20:09;8.30;;;2.10;;
74660;SDS011;63191;39.566;2.654;2022-09-03T02:22:40;9.50;;;2.40;;
74660;SDS011;63191;39.566;2.654;2022-09-03T02:25:07;10.00;;;2.00;;
74660;SDS011;63191;39.566;2.654;2022-09-03T02:27:39;8.00;;;2.40;;
74660;SDS011;63191;39.566;2.654;2022-09-03T02:30:06;9.70;;;2.20;;
74660;SDS011;63191;39.566;2.654;2022-09-03T02:32:33;7.60;;;2.30;;
74660;SDS011;63191;39.566;2.654;2022-09-03T02:34:59;9.00;;;2.00;;
74660;SDS011;63191;39.566;2.654;2022-09-03T02:37:24;8.80;;;1.90;;
74660;SDS011;63191;39.566;2.654;2022-09-03T02:39:50;9.20;;;2.30;;
74660;SDS011;63191;39.566;2.654;2022-09-03T02:42:17;7.90;;;2.40;;
74660;SDS011;63191;39.566;2.654;2022-09-03T02:44:56;11.40;;;2.50;;
74660;SDS011;63191;39.566;2.654;2022-09-03T02:47:49;9.20;;;2.60;;
74660;SDS011;63191;39.566;2.654;2022-09-03T02:50:17;8.00;;;2.30;;
74660;SDS011;63191;39.566;2.654;2022-09-03T02:52:43;9.20;;;2.30;;
74660;SDS011;63191;39.566;2.654;2022-09-03T02:55:09;7.60;;;2.00;;
74660;SDS011;63191;39.566;2.654;2022-09-03T02:57:35;10.60;;;2.60;;
74660;SDS011;63191;39.566;2.654;2022-09-03T03:00:01;7.50;;;2.20;;
74660;SDS011;63191;39.566;2.654;2022-09-03T03:02:27;9.10;;;2.20;;
74660;SDS011;63191;39.566;2.654;2022-09-03T03:04:52;9.00;;;2.10;;
74660;SDS011;63191;39.566;2.654;2022-09-03T03:07:19;8.80;;;2.20;;
74660;SDS011;63191;39.566;2.654;2022-09-03T03:09:45;8.50;;;2.20;;
74660;SDS011;63191;39.566;2.654;2022-09-03T03:12:11;7.30;;;2.20;;
74660;SDS011;63191;39.566;2.654;2022-09-03T03:14:37;9.90;;;2.40;;
74660;SDS011;63191;39.566;2.654;2022-09-03T03:17:03;10.00;;;2.50;;
74660;SDS011;63191;39.566;2.654;2022-09-03T03:19:28;9.90;;;2.50;;
74660;SDS011;63191;39.566;2.654;2022-09-03T03:21:54;9.30;;;2.00;;
74660;SDS011;63191;39.566;2.654;2022-09-03T03:24:20;8.70;;;2.20;;
74660;SDS011;63191;39.566;2.654;2022-09-03T03:26:46;9.40;;;2.40;;
74660;SDS011;63191;39.566;2.654;2022-09-03T03:29:14;14.00;;;2.60;;
74660;SDS011;63191;39.566;2.654;2022-09-03T03:31:42;8.50;;;2.60;;
74660;SDS011;63191;39.566;2.654;2022-09-03T03:34:08;10.30;;;2.40;;
74660;SDS011;63191;39.566;2.654;2022-09-03T03:36:34;9.30;;;2.40;;
74660;SDS011;63191;39.566;2.654;2022-09-03T03:39:00;11.30;;;2.80;;
74660;SDS011;63191;39.566;2.654;2022-09-03T03:41:32;9.60;;;2.70;;
74660;SDS011;63191;39.566;2.654;2022-09-03T03:44:02;10.40;;;2.20;;
74660;SDS011;63191;39.566;2.654;2022-09-03T03:46:37;11.50;;;2.60;;
74660;SDS011;63191;39.566;2.654;2022-09-03T03:49:04;8.70;;;2.40;;
74660;SDS011;63191;39.566;2.654;2022-09-03T03:51:32;10.40;;;2.50;;
74660;SDS011;63191;39.566;2.654;2022-09-03T03:53:59;10.70;;;2.50;;
74660;SDS011;63191;39.566;2.654;2022-09-03T03:56:25;6.60;;;2.10;;
74660;SDS011;63191;39.566;2.654;2022-09-03T03:58:52;11.60;;;2.70;;
74660;SDS011;63191;39.566;2.654;2022-09-03T04:01:20;7.30;;;2.50;;
74660;SDS011;63191;39.566;2.654;2022-09-03T04:03:47;9.50;;;2.30;;
74660;SDS011;63191;39.566;2.654;2022-09-03T04:06:16;9.80;;;2.30;;
74660;SDS011;63191;39.566;2.654;2022-09-03T04:08:44;9.00;;;2.40;;
74660;SDS011;63191;39.566;2.654;2022-09-03T04:11:17;11.20;;;2.00;;
74660;SDS011;63191;39.566;2.654;2022-09-03T04:13:44;10.70;;;2.20;;
74660;SDS011;63191;39.566;2.654;2022-09-03T04:16:20;9.60;;;2.80;;
74660;SDS011;63191;39.566;2.654;2022-09-03T04:18:52;10.00;;;2.90;;
74660;SDS011;63191;39.566;2.654;2022-09-03T04:21:24;10.50;;;2.90;;
74660;SDS011;63191;39.566;2.654;2022-09-03T04:23:52;10.20;;;2.60;;
74660;SDS011;63191;39.566;2.654;2022-09-03T04:26:24;9.70;;;2.20;;
74660;SDS011;63191;39.566;2.654;2022-09-03T04:28:51;8.00;;;2.30;;
74660;SDS011;63191;39.566;2.654;2022-09-03T04:31:18;10.40;;;2.30;;
74660;SDS011;63191;39.566;2.654;2022-09-03T04:33:45;10.00;;;2.40;;
74660;SDS011;63191;39.566;2.654;2022-09-03T04:36:19;9.50;;;2.80;;
74660;SDS011;63191;39.566;2.654;2022-09-03T04:38:48;10.10;;;2.40;;
74660;SDS011;63191;39.566;2.654;2022-09-03T04:41:19;11.30;;;2.40;;
74660;SDS011;63191;39.566;2.654;2022-09-03T04:43:50;7.40;;;2.00;;
74660;SDS011;63191;39.566;2.654;2022-09-03T04:46:18;11.10;;;2.50;;
74660;SDS011;63191;39.566;2.654;2022-09-03T04:48:47;10.20;;;2.30;;
74660;SDS011;63191;39.566;2.654;2022-09-03T04:51:27;10.60;;;2.80;;
74660;SDS011;63191;39.566;2.654;2022-09-03T04:53:59;13.00;;;2.50;;
74660;SDS011;63191;39.566;2.654;2022-09-03T04:56:32;12.00;;;3.10;;
74660;SDS011;63191;39.566;2.654;2022-09-03T04:59:04;11.50;;;2.60;;
74660;SDS011;63191;39.566;2.654;2022-09-03T05:01:33;8.60;;;2.40;;
74660;SDS011;63191;39.566;2.654;2022-09-03T05:04:00;8.40;;;2.30;;
74660;SDS011;63191;39.566;2.654;2022-09-03T05:06:28;9.20;;;2.10;;
74660;SDS011;63191;39.566;2.654;2022-09-03T05:08:55;11.80;;;2.80;;
74660;SDS011;63191;39.566;2.654;2022-09-03T05:11:22;9.80;;;2.50;;
74660;SDS011;63191;39.566;2.654;2022-09-03T05:13:50;11.60;;;2.40;;
74660;SDS011;63191;39.566;2.654;2022-09-03T05:16:18;9.80;;;2.70;;
74660;SDS011;63191;39.566;2.654;2022-09-03T05:18:46;9.20;;;2.70;;
74660;SDS011;63191;39.566;2.654;2022-09-03T05:21:14;10.10;;;2.20;;
74660;SDS011;63191;39.566;2.654;2022-09-03T05:23:44;10.70;;;2.50;;
74660;SDS011;63191;39.566;2.654;2022-09-03T05:26:13;8.60;;;2.50;;
74660;SDS011;63191;39.566;2.654;2022-09-03T05:29:00;11.30;;;2.20;;
74660;SDS011;63191;39.566;2.654;2022-09-03T05:31:31;8.50;;;2.10;;
74660;SDS011;63191;39.566;2.654;2022-09-03T05:33:58;11.30;;;2.30;;
74660;SDS011;63191;39.566;2.654;2022-09-03T05:36:30;10.60;;;2.10;;
74660;SDS011;63191;39.566;2.654;2022-09-03T05:38:59;8.00;;;2.20;;
74660;SDS011;63191;39.566;2.654;2022-09-03T05:41:26;9.80;;;2.50;;
74660;SDS011;63191;39.566;2.654;2022-09-03T05:43:54;10.50;;;2.50;;
74660;SDS011;63191;39.566;2.654;2022-09-03T05:46:26;8.00;;;2.20;;
74660;SDS011;63191;39.566;2.654;2022-09-03T05:49:00;8.00;;;2.30;;
74660;SDS011;63191;39.566;2.654;2022-09-03T05:51:27;8.50;;;2.30;;
74660;SDS011;63191;39.566;2.654;2022-09-03T05:53:54;10.20;;;2.60;;
74660;SDS011;63191;39.566;2.654;2022-09-03T05:56:22;8.80;;;2.60;;
74660;SDS011;63191;39.566;2.654;2022-09-03T05:58:51;7.50;;;2.20;;
74660;SDS011;63191;39.566;2.654;2022-09-03T06:01:23;8.80;;;2.00;;
74660;SDS011;63191;39.566;2.654;2022-09-03T06:03:58;7.00;;;2.20;;
74660;SDS011;63191;39.566;2.654;2022-09-03T06:06:26;10.10;;;2.40;;
74660;SDS011;63191;39.566;2.654;2022-09-03T06:09:03;9.30;;;2.60;;
74660;SDS011;63191;39.566;2.654;2022-09-03T06:11:31;8.80;;;2.30;;
74660;SDS011;63191;39.566;2.654;2022-09-03T06:14:01;9.50;;;2.50;;
74660;SDS011;63191;39.566;2.654;2022-09-03T06:16:37;10.20;;;2.50;;
74660;SDS011;63191;39.566;2.654;2022-09-03T06:19:05;9.80;;;2.40;;
74660;SDS011;63191;39.566;2.654;2022-09-03T06:21:38;8.40;;;2.30;;
74660;SDS011;63191;39.566;2.654;2022-09-03T06:24:17;12.50;;;2.70;;
74660;SDS011;63191;39.566;2.654;2022-09-03T06:26:47;10.20;;;2.50;;
74660;SDS011;63191;39.566;2.654;2022-09-03T06:29:13;10.70;;;2.50;;
74660;SDS011;63191;39.566;2.654;2022-09-03T06:31:39;12.60;;;3.00;;
74660;SDS011;63191;39.566;2.654;2022-09-03T06:34:05;9.20;;;2.60;;
74660;SDS011;63191;39.566;2.654;2022-09-03T06:36:32;13.50;;;2.80;;
74660;SDS011;63191;39.566;2.654;2022-09-03T06:38:58;11.80;;;3.20;;
74660;SDS011;63191;39.566;2.654;2022-09-03T06:41:29;13.50;;;3.20;;
74660;SDS011;63191;39.566;2.654;2022-09-03T06:44:03;9.30;;;2.80;;
74660;SDS011;63191;39.566;2.654;2022-09-03T06:46:35;10.30;;;3.10;;
74660;SDS011;63191;39.566;2.654;2022-09-03T06:49:03;9.20;;;2.70;;
74660;SDS011;63191;39.566;2.654;2022-09-03T06:51:31;8.70;;;2.70;;
74660;SDS011;63191;39.566;2.654;2022-09-03T06:54:03;11.10;;;2.80;;
74660;SDS011;63191;39.566;2.654;2022-09-03T06:56:30;11.10;;;2.90;;
74660;SDS011;63191;39.566;2.654;2022-09-03T06:59:02;8.90;;;2.80;;
74660;SDS011;63191;39.566;2.654;2022-09-03T07:01:30;10.90;;;3.00;;
74660;SDS011;63191;39.566;2.654;2022-09-03T07:04:02;9.20;;;3.20;;
74660;SDS011;63191;39.566;2.654;2022-09-03T07:06:31;7.70;;;2.80;;
74660;SDS011;63191;39.566;2.654;2022-09-03T07:08:58;10.00;;;2.70;;
74660;SDS011;63191;39.566;2.654;2022-09-03T07:11:27;10.00;;;2.90;;
74660;SDS011;63191;39.566;2.654;2022-09-03T07:13:56;15.60;;;3.30;;
74660;SDS011;63191;39.566;2.654;2022-09-03T07:16:34;13.50;;;3.10;;
74660;SDS011;63191;39.566;2.654;2022-09-03T07:19:01;10.90;;;3.30;;
74660;SDS011;63191;39.566;2.654;2022-09-03T07:21:31;12.50;;;3.20;;
74660;SDS011;63191;39.566;2.654;2022-09-03T07:23:58;17.60;;;3.50;;
74660;SDS011;63191;39.566;2.654;2022-09-03T07:26:26;15.70;;;3.80;;
74660;SDS011;63191;39.566;2.654;2022-09-03T07:28:57;17.80;;;3.20;;
74660;SDS011;63191;39.566;2.654;2022-09-03T07:31:30;11.20;;;3.00;;
74660;SDS011;63191;39.566;2.654;2022-09-03T07:34:04;12.90;;;3.10;;
74660;SDS011;63191;39.566;2.654;2022-09-03T07:36:37;11.40;;;3.20;;
74660;SDS011;63191;39.566;2.654;2022-09-03T07:39:04;10.60;;;3.20;;
74660;SDS011;63191;39.566;2.654;2022-09-03T07:41:30;8.30;;;3.00;;
74660;SDS011;63191;39.566;2.654;2022-09-03T07:43:58;11.00;;;3.20;;
74660;SDS011;63191;39.566;2.654;2022-09-03T07:46:32;12.00;;;3.80;;
74660;SDS011;63191;39.566;2.654;2022-09-03T07:48:59;11.10;;;3.20;;
74660;SDS011;63191;39.566;2.654;2022-09-03T07:51:32;10.80;;;3.40;;
74660;SDS011;63191;39.566;2.654;2022-09-03T07:54:01;12.40;;;3.50;;
74660;SDS011;63191;39.566;2.654;2022-09-03T07:56:29;9.00;;;2.80;;
74660;SDS011;63191;39.566;2.654;2022-09-03T07:58:56;13.70;;;3.20;;
74660;SDS011;63191;39.566;2.654;2022-09-03T08:01:23;10.00;;;3.10;;
74660;SDS011;63191;39.566;2.654;2022-09-03T08:03:52;12.00;;;3.20;;
74660;SDS011;63191;39.566;2.654;2022-09-03T08:06:23;15.40;;;3.80;;
74660;SDS011;63191;39.566;2.654;2022-09-03T08:09:04;13.60;;;3.10;;
74660;SDS011;63191;39.566;2.654;2022-09-03T08:11:36;14.50;;;3.30;;
74660;SDS011;63191;39.566;2.654;2022-09-03T08:14:05;11.10;;;3.20;;
74660;SDS011;63191;39.566;2.654;2022-09-03T08:16:35;12.20;;;3.20;;
74660;SDS011;63191;39.566;2.654;2022-09-03T08:19:03;9.00;;;3.20;;
74660;SDS011;63191;39.566;2.654;2022-09-03T08:21:29;10.80;;;3.10;;
74660;SDS011;63191;39.566;2.654;2022-09-03T08:23:56;13.70;;;3.40;;
74660;SDS011;63191;39.566;2.654;2022-09-03T08:26:30;9.80;;;3.20;;
74660;SDS011;63191;39.566;2.654;2022-09-03T08:29:00;10.60;;;3.40;;
74660;SDS011;63191;39.566;2.654;2022-09-03T08:31:27;10.00;;;3.00;;
74660;SDS011;63191;39.566;2.654;2022-09-03T08:33:55;12.50;;;3.50;;
74660;SDS011;63191;39.566;2.654;2022-09-03T08:36:30;9.90;;;3.20;;
74660;SDS011;63191;39.566;2.654;2022-09-03T08:38:58;12.90;;;3.60;;
74660;SDS011;63191;39.566;2.654;2022-09-03T08:49:47;11.90;;;4.60;;
74660;SDS011;63191;39.566;2.654;2022-09-03T08:52:45;9.50;;;3.20;;
74660;SDS011;63191;39.566;2.654;2022-09-03T08:55:20;11.10;;;3.30;;
74660;SDS011;63191;39.566;2.654;2022-09-03T08:58:13;13.20;;;3.00;;
74660;SDS011;63191;39.566;2.654;2022-09-03T09:00:57;14.00;;;3.80;;
74660;SDS011;63191;39.566;2.654;2022-09-03T09:06:52;16.20;;;5.60;;
74660;SDS011;63191;39.566;2.654;2022-09-03T09:09:46;12.10;;;3.60;;
74660;SDS011;63191;39.566;2.654;2022-09-03T09:15:27;12.10;;;3.50;;
74660;SDS011;63191;39.566;2.654;2022-09-03T09:23:48;12.50;;;4.70;;
74660;SDS011;63191;39.566;2.654;2022-09-03T09:26:17;10.50;;;3.70;;
74660;SDS011;63191;39.566;2.654;2022-09-03T09:28:49;10.90;;;3.70;;
74660;SDS011;63191;39.566;2.654;2022-09-03T09:31:20;10.50;;;3.20;;
74660;SDS011;63191;39.566;2.654;2022-09-03T09:33:45;10.20;;;3.40;;
74660;SDS011;63191;39.566;2.654;2022-09-03T09:36:14;12.20;;;4.10;;
74660;SDS011;63191;39.566;2.654;2022-09-03T09:38:42;11.10;;;3.40;;
74660;SDS011;63191;39.566;2.654;2022-09-03T09:41:15;7.90;;;3.10;;
74660;SDS011;63191;39.566;2.654;2022-09-03T09:43:44;11.10;;;4.40;;
74660;SDS011;63191;39.566;2.654;2022-09-03T09:46:20;7.80;;;3.20;;
74660;SDS011;63191;39.566;2.654;2022-09-03T09:48:50;11.60;;;4.30;;
74660;SDS011;63191;39.566;2.654;2022-09-03T09:51:23;13.00;;;5.00;;
74660;SDS011;63191;39.566;2.654;2022-09-03T09:54:25;12.70;;;4.80;;
74660;SDS011;63191;39.566;2.654;2022-09-03T09:57:06;13.20;;;4.40;;
74660;SDS011;63191;39.566;2.654;2022-09-03T09:59:34;10.90;;;4.10;;
74660;SDS011;63191;39.566;2.654;2022-09-03T10:02:07;10.20;;;4.30;;
74660;SDS011;63191;39.566;2.654;2022-09-03T10:04:36;10.60;;;4.60;;
74660;SDS011;63191;39.566;2.654;2022-09-03T10:07:24;11.80;;;5.20;;
74660;SDS011;63191;39.566;2.654;2022-09-03T10:21:44;7.70;;;3.70;;
74660;SDS011;63191;39.566;2.654;2022-09-03T10:27:15;10.10;;;3.00;;
74660;SDS011;63191;39.566;2.654;2022-09-03T10:29:42;11.60;;;4.00;;
74660;SDS011;63191;39.566;2.654;2022-09-03T10:35:31;10.40;;;3.10;;
74660;SDS011;63191;39.566;2.654;2022-09-03T10:46:15;11.00;;;3.30;;
74660;SDS011;63191;39.566;2.654;2022-09-03T10:51:34;10.40;;;3.20;;
74660;SDS011;63191;39.566;2.654;2022-09-03T10:56:46;11.50;;;3.70;;
74660;SDS011;63191;39.566;2.654;2022-09-03T11:00:10;8.50;;;3.90;;
74660;SDS011;63191;39.566;2.654;2022-09-03T11:10:41;9.50;;;3.20;;
74660;SDS011;63191;39.566;2.654;2022-09-03T11:13:32;10.60;;;3.00;;
74660;SDS011;63191;39.566;2.654;2022-09-03T11:16:27;11.70;;;3.10;;
74660;SDS011;63191;39.566;2.654;2022-09-03T11:19:04;8.80;;;3.00;;
74660;SDS011;63191;39.566;2.654;2022-09-03T11:21:37;11.30;;;2.90;;
74660;SDS011;63191;39.566;2.654;2022-09-03T11:24:15;9.50;;;2.70;;
74660;SDS011;63191;39.566;2.654;2022-09-03T11:27:19;12.80;;;3.10;;
74660;SDS011;63191;39.566;2.654;2022-09-03T11:30:02;10.80;;;2.80;;
74660;SDS011;63191;39.566;2.654;2022-09-03T11:35:28;10.10;;;3.10;;
74660;SDS011;63191;39.566;2.654;2022-09-03T11:40:57;12.90;;;3.20;;
74660;SDS011;63191;39.566;2.654;2022-09-03T11:43:44;16.40;;;4.20;;
74660;SDS011;63191;39.566;2.654;2022-09-03T11:49:12;9.20;;;2.90;;
74660;SDS011;63191;39.566;2.654;2022-09-03T11:51:39;9.30;;;2.70;;
74660;SDS011;63191;39.566;2.654;2022-09-03T11:56:42;11.10;;;3.10;;
74660;SDS011;63191;39.566;2.654;2022-09-03T11:59:23;9.30;;;2.50;;
74660;SDS011;63191;39.566;2.654;2022-09-03T12:01:59;14.10;;;3.20;;
74660;SDS011;63191;39.566;2.654;2022-09-03T12:14:19;8.30;;;2.60;;
74660;SDS011;63191;39.566;2.654;2022-09-03T12:17:10;13.10;;;3.40;;
74660;SDS011;63191;39.566;2.654;2022-09-03T12:22:14;12.40;;;3.30;;
74660;SDS011;63191;39.566;2.654;2022-09-03T12:24:41;13.50;;;3.50;;
74660;SDS011;63191;39.566;2.654;2022-09-03T12:27:14;15.80;;;3.50;;
74660;SDS011;63191;39.566;2.654;2022-09-03T12:29:58;13.40;;;3.40;;
74660;SDS011;63191;39.566;2.654;2022-09-03T12:32:33;12.40;;;3.10;;
74660;SDS011;63191;39.566;2.654;2022-09-03T12:35:18;12.70;;;3.40;;
74660;SDS011;63191;39.566;2.654;2022-09-03T12:37:45;12.60;;;3.40;;
74660;SDS011;63191;39.566;2.654;2022-09-03T12:40:21;11.50;;;3.10;;
74660;SDS011;63191;39.566;2.654;2022-09-03T12:42:51;13.00;;;3.50;;
74660;SDS011;63191;39.566;2.654;2022-09-03T12:45:20;16.00;;;3.70;;
74660;SDS011;63191;39.566;2.654;2022-09-03T12:47:48;13.30;;;3.90;;
74660;SDS011;63191;39.566;2.654;2022-09-03T12:50:17;13.30;;;3.70;;
74660;SDS011;63191;39.566;2.654;2022-09-03T12:52:52;11.20;;;3.30;;
74660;SDS011;63191;39.566;2.654;2022-09-03T12:58:12;12.50;;;3.40;;
74660;SDS011;63191;39.566;2.654;2022-09-03T13:00:44;12.30;;;3.30;;
74660;SDS011;63191;39.566;2.654;2022-09-03T13:05:56;15.50;;;4.20;;
74660;SDS011;63191;39.566;2.654;2022-09-03T13:08:28;12.70;;;3.50;;
74660;SDS011;63191;39.566;2.654;2022-09-03T13:10:59;17.10;;;4.10;;
74660;SDS011;63191;39.566;2.654;2022-09-03T13:13:31;14.70;;;3.80;;
74660;SDS011;63191;39.566;2.654;2022-09-03T13:24:38;11.30;;;3.40;;
74660;SDS011;63191;39.566;2.654;2022-09-03T13:30:12;17.60;;;3.40;;
74660;SDS011;63191;39.566;2.654;2022-09-03T13:33:04;11.70;;;3.60;;
74660;SDS011;63191;39.566;2.654;2022-09-03T13:41:20;13.50;;;3.70;;
74660;SDS011;63191;39.566;2.654;2022-09-03T13:44:03;10.00;;;2.80;;
74660;SDS011;63191;39.566;2.654;2022-09-03T13:46:53;13.80;;;3.50;;
74660;SDS011;63191;39.566;2.654;2022-09-03T13:58:00;10.90;;;2.90;;
74660;SDS011;63191;39.566;2.654;2022-09-03T14:03:44;10.00;;;2.50;;
74660;SDS011;63191;39.566;2.654;2022-09-03T14:06:36;10.80;;;2.40;;
74660;SDS011;63191;39.566;2.654;2022-09-03T14:09:26;7.90;;;2.70;;
74660;SDS011;63191;39.566;2.654;2022-09-03T14:12:16;8.60;;;2.20;;
74660;SDS011;63191;39.566;2.654;2022-09-03T14:15:26;10.70;;;3.60;;
74660;SDS011;63191;39.566;2.654;2022-09-03T14:20:48;9.90;;;3.00;;
74660;SDS011;63191;39.566;2.654;2022-09-03T14:23:49;11.40;;;2.80;;
74660;SDS011;63191;39.566;2.654;2022-09-03T14:26:53;12.80;;;3.00;;
74660;SDS011;63191;39.566;2.654;2022-09-03T14:29:27;11.20;;;2.90;;
74660;SDS011;63191;39.566;2.654;2022-09-03T14:37:49;12.00;;;2.90;;
74660;SDS011;63191;39.566;2.654;2022-09-03T14:41:05;9.40;;;3.30;;
74660;SDS011;63191;39.566;2.654;2022-09-03T14:43:59;14.60;;;3.40;;
74660;SDS011;63191;39.566;2.654;2022-09-03T14:46:49;9.80;;;2.80;;
74660;SDS011;63191;39.566;2.654;2022-09-03T14:49:33;13.50;;;3.10;;
74660;SDS011;63191;39.566;2.654;2022-09-03T14:53:12;10.70;;;3.00;;
74660;SDS011;63191;39.566;2.654;2022-09-03T15:01:52;8.10;;;2.90;;
74660;SDS011;63191;39.566;2.654;2022-09-03T15:04:53;11.00;;;3.40;;
74660;SDS011;63191;39.566;2.654;2022-09-03T15:12:57;6.90;;;2.70;;
74660;SDS011;63191;39.566;2.654;2022-09-03T15:15:41;10.20;;;2.80;;
74660;SDS011;63191;39.566;2.654;2022-09-03T15:18:41;9.30;;;2.80;;
74660;SDS011;63191;39.566;2.654;2022-09-03T15:24:42;13.40;;;3.10;;
74660;SDS011;63191;39.566;2.654;2022-09-03T15:30:11;13.70;;;3.30;;
74660;SDS011;63191;39.566;2.654;2022-09-03T15:38:04;10.10;;;3.10;;
74660;SDS011;63191;39.566;2.654;2022-09-03T15:40:57;11.80;;;3.60;;
74660;SDS011;63191;39.566;2.654;2022-09-03T15:43:29;10.60;;;3.00;;
74660;SDS011;63191;39.566;2.654;2022-09-03T15:46:04;11.60;;;3.70;;
74660;SDS011;63191;39.566;2.654;2022-09-03T15:49:07;9.90;;;2.80;;
74660;SDS011;63191;39.566;2.654;2022-09-03T16:00:53;14.30;;;4.50;;
74660;SDS011;63191;39.566;2.654;2022-09-03T16:12:34;14.40;;;3.60;;
74660;SDS011;63191;39.566;2.654;2022-09-03T16:15:40;15.50;;;3.90;;
74660;SDS011;63191;39.566;2.654;2022-09-03T16:24:22;11.20;;;3.10;;
74660;SDS011;63191;39.566;2.654;2022-09-03T16:30:10;13.50;;;3.50;;
74660;SDS011;63191;39.566;2.654;2022-09-03T16:39:00;10.10;;;3.30;;
74660;SDS011;63191;39.566;2.654;2022-09-03T16:41:42;11.80;;;3.50;;
74660;SDS011;63191;39.566;2.654;2022-09-03T16:53:29;12.40;;;3.60;;
74660;SDS011;63191;39.566;2.654;2022-09-03T17:13:51;12.30;;;3.00;;
74660;SDS011;63191;39.566;2.654;2022-09-03T17:16:41;10.10;;;3.10;;
74660;SDS011;63191;39.566;2.654;2022-09-03T17:22:38;11.60;;;3.00;;
74660;SDS011;63191;39.566;2.654;2022-09-03T17:37:02;10.00;;;2.90;;
74660;SDS011;63191;39.566;2.654;2022-09-03T17:40:05;8.60;;;2.40;;
74660;SDS011;63191;39.566;2.654;2022-09-03T17:43:02;14.10;;;3.30;;
74660;SDS011;63191;39.566;2.654;2022-09-03T17:46:08;11.30;;;3.10;;
74660;SDS011;63191;39.566;2.654;2022-09-03T17:48:52;10.70;;;2.40;;
74660;SDS011;63191;39.566;2.654;2022-09-03T17:51:45;7.50;;;2.20;;
74660;SDS011;63191;39.566;2.654;2022-09-03T18:00:04;14.10;;;3.20;;
74660;SDS011;63191;39.566;2.654;2022-09-03T18:02:55;11.60;;;3.20;;
74660;SDS011;63191;39.566;2.654;2022-09-03T18:05:31;9.80;;;3.10;;
74660;SDS011;63191;39.566;2.654;2022-09-03T18:11:34;14.40;;;3.40;;
74660;SDS011;63191;39.566;2.654;2022-09-03T18:14:19;11.90;;;2.90;;
74660;SDS011;63191;39.566;2.654;2022-09-03T18:16:51;13.10;;;4.30;;
74660;SDS011;63191;39.566;2.654;2022-09-03T18:19:41;14.80;;;5.60;;
74660;SDS011;63191;39.566;2.654;2022-09-03T18:26:06;12.80;;;4.70;;
74660;SDS011;63191;39.566;2.654;2022-09-03T18:29:07;11.70;;;3.80;;
74660;SDS011;63191;39.566;2.654;2022-09-03T18:31:55;19.30;;;8.10;;
74660;SDS011;63191;39.566;2.654;2022-09-03T18:34:40;17.10;;;6.90;;
74660;SDS011;63191;39.566;2.654;2022-09-03T18:37:26;15.30;;;6.60;;
74660;SDS011;63191;39.566;2.654;2022-09-03T18:40:24;9.80;;;2.70;;
74660;SDS011;63191;39.566;2.654;2022-09-03T18:46:41;9.60;;;2.80;;
74660;SDS011;63191;39.566;2.654;2022-09-03T18:50:04;13.20;;;2.90;;
74660;SDS011;63191;39.566;2.654;2022-09-03T18:53:11;13.10;;;3.20;;
74660;SDS011;63191;39.566;2.654;2022-09-03T19:01:50;12.30;;;3.70;;
74660;SDS011;63191;39.566;2.654;2022-09-03T19:05:23;11.50;;;3.60;;
74660;SDS011;63191;39.566;2.654;2022-09-03T19:08:23;9.00;;;2.90;;
74660;SDS011;63191;39.566;2.654;2022-09-03T19:14:33;8.30;;;2.00;;
74660;SDS011;63191;39.566;2.654;2022-09-03T19:20:35;10.10;;;3.10;;
74660;SDS011;63191;39.566;2.654;2022-09-03T19:23:19;6.90;;;1.90;;
74660;SDS011;63191;39.566;2.654;2022-09-03T19:26:35;7.30;;;2.20;;
74660;SDS011;63191;39.566;2.654;2022-09-03T19:29:44;8.50;;;2.20;;
74660;SDS011;63191;39.566;2.654;2022-09-03T19:42:56;11.50;;;3.60;;
74660;SDS011;63191;39.566;2.654;2022-09-03T19:50:17;7.90;;;2.50;;
74660;SDS011;63191;39.566;2.654;2022-09-03T19:52:48;8.00;;;2.50;;
74660;SDS011;63191;39.566;2.654;2022-09-03T19:55:56;11.10;;;2.80;;
74660;SDS011;63191;39.566;2.654;2022-09-03T19:58:48;9.20;;;2.40;;
74660;SDS011;63191;39.566;2.654;2022-09-03T20:01:38;6.00;;;1.60;;
74660;SDS011;63191;39.566;2.654;2022-09-03T20:04:35;8.20;;;2.40;;
74660;SDS011;63191;39.566;2.654;2022-09-03T20:07:23;12.10;;;3.20;;
74660;SDS011;63191;39.566;2.654;2022-09-03T20:10:13;8.90;;;2.10;;
74660;SDS011;63191;39.566;2.654;2022-09-03T20:36:37;10.10;;;2.70;;
74660;SDS011;63191;39.566;2.654;2022-09-03T20:39:23;15.70;;;3.00;;
74660;SDS011;63191;39.566;2.654;2022-09-03T20:48:10;11.70;;;2.90;;
74660;SDS011;63191;39.566;2.654;2022-09-03T21:00:15;13.20;;;3.40;;
74660;SDS011;63191;39.566;2.654;2022-09-03T21:09:02;10.60;;;3.40;;
74660;SDS011;63191;39.566;2.654;2022-09-03T21:14:48;11.90;;;3.40;;
74660;SDS011;63191;39.566;2.654;2022-09-03T21:17:34;11.70;;;3.80;;
74660;SDS011;63191;39.566;2.654;2022-09-03T21:20:36;11.80;;;3.50;;
74660;SDS011;63191;39.566;2.654;2022-09-03T21:23:20;11.30;;;3.20;;
74660;SDS011;63191;39.566;2.654;2022-09-03T21:25:51;11.60;;;3.70;;
74660;SDS011;63191;39.566;2.654;2022-09-03T21:28:27;11.10;;;3.40;;
74660;SDS011;63191;39.566;2.654;2022-09-03T21:31:02;13.00;;;3.40;;
74660;SDS011;63191;39.566;2.654;2022-09-03T21:33:54;13.90;;;4.50;;
74660;SDS011;63191;39.566;2.654;2022-09-03T21:36:33;14.80;;;4.40;;
74660;SDS011;63191;39.566;2.654;2022-09-03T21:39:09;14.70;;;4.00;;
74660;SDS011;63191;39.566;2.654;2022-09-03T21:42:06;13.50;;;3.80;;
74660;SDS011;63191;39.566;2.654;2022-09-03T21:44:59;12.50;;;4.30;;
74660;SDS011;63191;39.566;2.654;2022-09-03T21:47:37;13.00;;;3.80;;
74660;SDS011;63191;39.566;2.654;2022-09-03T21:52:55;10.50;;;2.70;;
74660;SDS011;63191;39.566;2.654;2022-09-03T22:01:39;10.70;;;3.10;;